sensor_id;sensor_type;location;lat;lon;timestamp;temperature;humidity
23532;DHT22;11943;52.270;20.978;2023-05-21T00:00:21;14.40;99.90
23532;DHT22;11943;52.270;20.978;2023-05-21T00:02:47;14.40;99.90
23532;DHT22;11943;52.270;20.978;2023-05-21T00:05:13;14.40;99.90
23532;DHT22;11943;52.270;20.978;2023-05-21T00:07:39;14.40;99.90
23532;DHT22;11943;52.270;20.978;2023-05-21T00:10:06;14.40;99.90
23532;DHT22;11943;52.270;20.978;2023-05-21T00:12:32;14.40;99.90
23532;DHT22;11943;52.270;20.978;2023-05-21T00:14:58;14.40;99.90
23532;DHT22;11943;52.270;20.978;2023-05-21T00:17:26;14.40;99.90
23532;DHT22;11943;52.270;20.978;2023-05-21T00:19:51;14.40;99.90
23532;DHT22;11943;52.270;20.978;2023-05-21T00:22:17;14.40;99.90
23532;DHT22;11943;52.270;20.978;2023-05-21T00:24:44;14.40;99.90
23532;DHT22;11943;52.270;20.978;2023-05-21T00:27:11;14.40;99.90
23532;DHT22;11943;52.270;20.978;2023-05-21T00:29:37;14.40;99.90
23532;DHT22;11943;52.270;20.978;2023-05-21T00:32:03;14.40;99.90
23532;DHT22;11943;52.270;20.978;2023-05-21T00:34:28;14.40;99.90
23532;DHT22;11943;52.270;20.978;2023-05-21T00:36:54;14.30;99.90
23532;DHT22;11943;52.270;20.978;2023-05-21T00:39:20;14.30;99.90
23532;DHT22;11943;52.270;20.978;2023-05-21T00:41:46;14.20;99.90
23532;DHT22;11943;52.270;20.978;2023-05-21T00:44:13;14.10;99.90
23532;DHT22;11943;52.270;20.978;2023-05-21T00:46:41;14.10;99.90
23532;DHT22;11943;52.270;20.978;2023-05-21T00:49:09;14.10;99.90
23532;DHT22;11943;52.270;20.978;2023-05-21T00:51:35;14.00;99.90
23532;DHT22;11943;52.270;20.978;2023-05-21T00:54:00;14.00;99.90
23532;DHT22;11943;52.270;20.978;2023-05-21T00:56:27;13.90;99.90
23532;DHT22;11943;52.270;20.978;2023-05-21T00:58:54;13.90;99.90
23532;DHT22;11943;52.270;20.978;2023-05-21T01:01:21;13.80;99.90
23532;DHT22;11943;52.270;20.978;2023-05-21T01:03:51;13.70;99.90
23532;DHT22;11943;52.270;20.978;2023-05-21T01:06:18;13.70;99.90
23532;DHT22;11943;52.270;20.978;2023-05-21T01:08:45;13.70;99.90
23532;DHT22;11943;52.270;20.978;2023-05-21T01:11:11;13.70;99.90
23532;DHT22;11943;52.270;20.978;2023-05-21T01:13:38;13.60;99.90
23532;DHT22;11943;52.270;20.978;2023-05-21T01:16:06;13.60;99.90
23532;DHT22;11943;52.270;20.978;2023-05-21T01:18:34;13.60;99.90
23532;DHT22;11943;52.270;20.978;2023-05-21T01:21:02;13.50;99.90
23532;DHT22;11943;52.270;20.978;2023-05-21T01:23:28;13.50;99.90
23532;DHT22;11943;52.270;20.978;2023-05-21T01:25:54;13.40;99.90
23532;DHT22;11943;52.270;20.978;2023-05-21T01:28:19;13.40;99.90
23532;DHT22;11943;52.270;20.978;2023-05-21T01:30:45;13.30;99.90
23532;DHT22;11943;52.270;20.978;2023-05-21T01:33:18;13.30;99.90
23532;DHT22;11943;52.270;20.978;2023-05-21T01:35:53;13.30;99.90
23532;DHT22;11943;52.270;20.978;2023-05-21T01:38:43;13.20;99.90
23532;DHT22;11943;52.270;20.978;2023-05-21T01:41:17;13.20;99.90
23532;DHT22;11943;52.270;20.978;2023-05-21T01:43:44;13.10;99.90
23532;DHT22;11943;52.270;20.978;2023-05-21T01:46:12;13.10;99.90
23532;DHT22;11943;52.270;20.978;2023-05-21T01:48:38;13.10;99.90
23532;DHT22;11943;52.270;20.978;2023-05-21T01:51:04;13.10;99.90
23532;DHT22;11943;52.270;20.978;2023-05-21T01:53:31;13.10;99.90
23532;DHT22;11943;52.270;20.978;2023-05-21T01:55:57;13.10;99.90
23532;DHT22;11943;52.270;20.978;2023-05-21T01:58:24;13.10;99.90
23532;DHT22;11943;52.270;20.978;2023-05-21T02:00:49;13.00;99.90
23532;DHT22;11943;52.270;20.978;2023-05-21T02:03:17;13.00;99.90
23532;DHT22;11943;52.270;20.978;2023-05-21T02:05:43;13.00;99.90
23532;DHT22;11943;52.270;20.978;2023-05-21T02:08:09;12.90;99.90
23532;DHT22;11943;52.270;20.978;2023-05-21T02:10:35;12.90;99.90
23532;DHT22;11943;52.270;20.978;2023-05-21T02:13:01;12.90;99.90
23532;DHT22;11943;52.270;20.978;2023-05-21T02:15:27;12.90;99.90
23532;DHT22;11943;52.270;20.978;2023-05-21T02:17:53;12.80;99.90
23532;DHT22;11943;52.270;20.978;2023-05-21T02:20:20;12.80;99.90
23532;DHT22;11943;52.270;20.978;2023-05-21T02:22:47;12.70;99.90
23532;DHT22;11943;52.270;20.978;2023-05-21T02:25:15;12.70;99.90
23532;DHT22;11943;52.270;20.978;2023-05-21T02:27:42;12.70;99.90
23532;DHT22;11943;52.270;20.978;2023-05-21T02:30:12;12.60;99.90
23532;DHT22;11943;52.270;20.978;2023-05-21T02:32:38;12.60;99.90
23532;DHT22;11943;52.270;20.978;2023-05-21T02:35:08;12.60;99.90
23532;DHT22;11943;52.270;20.978;2023-05-21T02:37:34;12.60;99.90
23532;DHT22;11943;52.270;20.978;2023-05-21T02:40:02;12.60;99.90
23532;DHT22;11943;52.270;20.978;2023-05-21T02:42:29;12.60;99.90
23532;DHT22;11943;52.270;20.978;2023-05-21T02:44:55;12.50;99.90
23532;DHT22;11943;52.270;20.978;2023-05-21T02:47:21;12.50;99.90
23532;DHT22;11943;52.270;20.978;2023-05-21T02:49:49;12.50;99.90
23532;DHT22;11943;52.270;20.978;2023-05-21T02:52:15;12.40;99.90
23532;DHT22;11943;52.270;20.978;2023-05-21T02:54:43;12.50;99.90
23532;DHT22;11943;52.270;20.978;2023-05-21T02:57:08;12.40;99.90
23532;DHT22;11943;52.270;20.978;2023-05-21T02:59:34;12.40;99.90
23532;DHT22;11943;52.270;20.978;2023-05-21T03:02:00;12.40;99.90
23532;DHT22;11943;52.270;20.978;2023-05-21T03:04:25;12.40;99.90
23532;DHT22;11943;52.270;20.978;2023-05-21T03:06:53;12.50;99.90
23532;DHT22;11943;52.270;20.978;2023-05-21T03:09:22;12.40;99.90
23532;DHT22;11943;52.270;20.978;2023-05-21T03:11:48;12.50;99.90
23532;DHT22;11943;52.270;20.978;2023-05-21T03:14:14;12.50;99.90
23532;DHT22;11943;52.270;20.978;2023-05-21T03:16:41;12.50;99.90
23532;DHT22;11943;52.270;20.978;2023-05-21T03:19:08;12.50;99.90
23532;DHT22;11943;52.270;20.978;2023-05-21T03:21:34;12.50;99.90
23532;DHT22;11943;52.270;20.978;2023-05-21T03:24:01;12.60;99.90
23532;DHT22;11943;52.270;20.978;2023-05-21T03:26:27;12.60;99.90
23532;DHT22;11943;52.270;20.978;2023-05-21T03:28:54;12.60;99.90
23532;DHT22;11943;52.270;20.978;2023-05-21T03:31:21;12.70;99.90
23532;DHT22;11943;52.270;20.978;2023-05-21T03:33:47;12.70;99.90
23532;DHT22;11943;52.270;20.978;2023-05-21T03:36:13;12.80;99.90
23532;DHT22;11943;52.270;20.978;2023-05-21T03:38:39;12.90;99.90
23532;DHT22;11943;52.270;20.978;2023-05-21T03:41:06;12.90;99.90
23532;DHT22;11943;52.270;20.978;2023-05-21T03:43:32;12.90;99.90
23532;DHT22;11943;52.270;20.978;2023-05-21T03:45:58;13.00;99.90
23532;DHT22;11943;52.270;20.978;2023-05-21T03:48:24;13.00;99.90
23532;DHT22;11943;52.270;20.978;2023-05-21T03:50:49;13.00;99.90
23532;DHT22;11943;52.270;20.978;2023-05-21T03:53:16;13.00;99.90
23532;DHT22;11943;52.270;20.978;2023-05-21T03:55:41;13.10;99.90
23532;DHT22;11943;52.270;20.978;2023-05-21T03:58:07;13.10;99.90
23532;DHT22;11943;52.270;20.978;2023-05-21T04:00:34;13.10;99.90
23532;DHT22;11943;52.270;20.978;2023-05-21T04:03:02;13.10;99.90
23532;DHT22;11943;52.270;20.978;2023-05-21T04:05:27;13.20;99.90
23532;DHT22;11943;52.270;20.978;2023-05-21T04:07:53;13.20;99.90
23532;DHT22;11943;52.270;20.978;2023-05-21T04:10:18;13.20;99.90
23532;DHT22;11943;52.270;20.978;2023-05-21T04:12:44;13.20;99.90
23532;DHT22;11943;52.270;20.978;2023-05-21T04:15:10;13.30;99.90
23532;DHT22;11943;52.270;20.978;2023-05-21T04:17:36;13.30;99.90
23532;DHT22;11943;52.270;20.978;2023-05-21T04:20:02;13.40;99.90
23532;DHT22;11943;52.270;20.978;2023-05-21T04:22:28;13.40;99.90
23532;DHT22;11943;52.270;20.978;2023-05-21T04:24:54;13.50;99.90
23532;DHT22;11943;52.270;20.978;2023-05-21T04:27:23;13.50;99.90
23532;DHT22;11943;52.270;20.978;2023-05-21T04:29:49;13.60;99.90
23532;DHT22;11943;52.270;20.978;2023-05-21T04:32:15;13.60;99.90
23532;DHT22;11943;52.270;20.978;2023-05-21T04:34:42;13.70;99.90
23532;DHT22;11943;52.270;20.978;2023-05-21T04:37:08;13.70;99.90
23532;DHT22;11943;52.270;20.978;2023-05-21T04:39:34;13.80;99.90
23532;DHT22;11943;52.270;20.978;2023-05-21T04:42:01;13.90;99.90
23532;DHT22;11943;52.270;20.978;2023-05-21T04:44:28;14.00;99.90
23532;DHT22;11943;52.270;20.978;2023-05-21T04:46:53;14.10;99.90
23532;DHT22;11943;52.270;20.978;2023-05-21T04:49:19;14.50;99.90
23532;DHT22;11943;52.270;20.978;2023-05-21T04:51:48;15.00;99.90
23532;DHT22;11943;52.270;20.978;2023-05-21T04:54:14;15.40;99.90
23532;DHT22;11943;52.270;20.978;2023-05-21T04:56:39;15.60;99.90
23532;DHT22;11943;52.270;20.978;2023-05-21T04:59:05;15.50;99.90
23532;DHT22;11943;52.270;20.978;2023-05-21T05:01:32;15.50;99.90
23532;DHT22;11943;52.270;20.978;2023-05-21T05:03:59;15.80;99.90
23532;DHT22;11943;52.270;20.978;2023-05-21T05:06:25;16.00;99.90
23532;DHT22;11943;52.270;20.978;2023-05-21T05:08:51;16.30;99.90
23532;DHT22;11943;52.270;20.978;2023-05-21T05:11:17;16.90;99.30
23532;DHT22;11943;52.270;20.978;2023-05-21T05:13:42;17.40;95.40
23532;DHT22;11943;52.270;20.978;2023-05-21T05:16:08;17.80;88.40
23532;DHT22;11943;52.270;20.978;2023-05-21T05:18:34;18.50;82.80
23532;DHT22;11943;52.270;20.978;2023-05-21T05:21:00;18.90;80.60
23532;DHT22;11943;52.270;20.978;2023-05-21T05:23:26;19.30;80.90
23532;DHT22;11943;52.270;20.978;2023-05-21T05:25:52;19.70;75.00
23532;DHT22;11943;52.270;20.978;2023-05-21T05:28:17;19.80;69.40
23532;DHT22;11943;52.270;20.978;2023-05-21T05:30:43;19.70;71.40
23532;DHT22;11943;52.270;20.978;2023-05-21T05:33:09;20.20;69.00
23532;DHT22;11943;52.270;20.978;2023-05-21T05:35:36;20.40;69.00
23532;DHT22;11943;52.270;20.978;2023-05-21T05:38:02;20.90;66.70
23532;DHT22;11943;52.270;20.978;2023-05-21T05:40:27;21.30;63.30
23532;DHT22;11943;52.270;20.978;2023-05-21T05:42:53;21.60;62.40
23532;DHT22;11943;52.270;20.978;2023-05-21T05:45:19;21.80;60.50
23532;DHT22;11943;52.270;20.978;2023-05-21T05:47:45;21.90;59.20
23532;DHT22;11943;52.270;20.978;2023-05-21T05:50:11;21.90;57.80
23532;DHT22;11943;52.270;20.978;2023-05-21T05:52:36;22.10;59.40
23532;DHT22;11943;52.270;20.978;2023-05-21T05:55:02;22.20;58.80
23532;DHT22;11943;52.270;20.978;2023-05-21T05:57:28;22.50;59.00
23532;DHT22;11943;52.270;20.978;2023-05-21T05:59:53;22.40;59.10
23532;DHT22;11943;52.270;20.978;2023-05-21T06:02:19;22.70;57.60
23532;DHT22;11943;52.270;20.978;2023-05-21T06:04:45;22.80;56.70
23532;DHT22;11943;52.270;20.978;2023-05-21T06:07:10;23.10;56.80
23532;DHT22;11943;52.270;20.978;2023-05-21T06:09:36;22.90;56.50
23532;DHT22;11943;52.270;20.978;2023-05-21T06:12:06;23.10;57.30
23532;DHT22;11943;52.270;20.978;2023-05-21T06:14:32;23.20;58.40
23532;DHT22;11943;52.270;20.978;2023-05-21T06:16:57;23.30;56.90
23532;DHT22;11943;52.270;20.978;2023-05-21T06:19:23;23.20;56.70
23532;DHT22;11943;52.270;20.978;2023-05-21T06:21:49;22.90;55.30
23532;DHT22;11943;52.270;20.978;2023-05-21T06:24:14;22.10;59.40
23532;DHT22;11943;52.270;20.978;2023-05-21T06:26:40;21.70;59.80
23532;DHT22;11943;52.270;20.978;2023-05-21T06:29:06;21.50;60.60
23532;DHT22;11943;52.270;20.978;2023-05-21T06:31:32;21.40;60.70
23532;DHT22;11943;52.270;20.978;2023-05-21T06:33:58;21.00;60.40
23532;DHT22;11943;52.270;20.978;2023-05-21T06:36:25;20.90;63.00
23532;DHT22;11943;52.270;20.978;2023-05-21T06:38:54;20.90;65.80
23532;DHT22;11943;52.270;20.978;2023-05-21T06:41:21;20.90;65.60
23532;DHT22;11943;52.270;20.978;2023-05-21T06:43:47;20.70;64.10
23532;DHT22;11943;52.270;20.978;2023-05-21T06:46:13;20.90;63.60
23532;DHT22;11943;52.270;20.978;2023-05-21T06:48:39;20.70;64.30
23532;DHT22;11943;52.270;20.978;2023-05-21T06:51:04;20.70;63.00
23532;DHT22;11943;52.270;20.978;2023-05-21T06:53:30;20.80;64.30
23532;DHT22;11943;52.270;20.978;2023-05-21T06:55:56;20.90;66.00
23532;DHT22;11943;52.270;20.978;2023-05-21T06:58:21;21.10;65.60
23532;DHT22;11943;52.270;20.978;2023-05-21T07:00:47;21.10;64.60
23532;DHT22;11943;52.270;20.978;2023-05-21T07:03:13;21.10;64.10
23532;DHT22;11943;52.270;20.978;2023-05-21T07:05:39;20.90;64.30
23532;DHT22;11943;52.270;20.978;2023-05-21T07:08:05;21.20;65.70
23532;DHT22;11943;52.270;20.978;2023-05-21T07:10:31;21.30;66.10
23532;DHT22;11943;52.270;20.978;2023-05-21T07:12:56;21.40;65.30
23532;DHT22;11943;52.270;20.978;2023-05-21T07:15:22;21.50;64.30
23532;DHT22;11943;52.270;20.978;2023-05-21T07:17:47;21.40;62.40
23532;DHT22;11943;52.270;20.978;2023-05-21T07:20:13;21.60;63.90
23532;DHT22;11943;52.270;20.978;2023-05-21T07:22:39;21.90;63.70
23532;DHT22;11943;52.270;20.978;2023-05-21T07:25:05;21.90;63.10
23532;DHT22;11943;52.270;20.978;2023-05-21T07:27:31;22.10;60.80
23532;DHT22;11943;52.270;20.978;2023-05-21T07:29:57;22.00;59.40
23532;DHT22;11943;52.270;20.978;2023-05-21T07:32:22;21.90;63.40
23532;DHT22;11943;52.270;20.978;2023-05-21T07:34:48;22.10;62.40
23532;DHT22;11943;52.270;20.978;2023-05-21T07:37:14;21.90;61.70
23532;DHT22;11943;52.270;20.978;2023-05-21T07:39:39;22.00;59.20
23532;DHT22;11943;52.270;20.978;2023-05-21T07:42:05;22.20;59.40
23532;DHT22;11943;52.270;20.978;2023-05-21T07:44:31;22.40;59.50
23532;DHT22;11943;52.270;20.978;2023-05-21T07:46:57;22.10;58.30
23532;DHT22;11943;52.270;20.978;2023-05-21T07:49:22;22.10;57.50
23532;DHT22;11943;52.270;20.978;2023-05-21T07:51:48;22.40;59.20
23532;DHT22;11943;52.270;20.978;2023-05-21T07:54:14;22.40;59.80
23532;DHT22;11943;52.270;20.978;2023-05-21T07:56:40;22.40;58.50
23532;DHT22;11943;52.270;20.978;2023-05-21T07:59:05;22.40;59.40
23532;DHT22;11943;52.270;20.978;2023-05-21T08:01:32;22.50;58.50
23532;DHT22;11943;52.270;20.978;2023-05-21T08:03:58;22.40;58.60
23532;DHT22;11943;52.270;20.978;2023-05-21T08:06:30;22.50;57.30
23532;DHT22;11943;52.270;20.978;2023-05-21T08:08:55;22.60;58.20
23532;DHT22;11943;52.270;20.978;2023-05-21T08:11:21;22.60;57.40
23532;DHT22;11943;52.270;20.978;2023-05-21T08:13:47;22.70;57.00
23532;DHT22;11943;52.270;20.978;2023-05-21T08:16:13;22.80;56.90
23532;DHT22;11943;52.270;20.978;2023-05-21T08:18:39;22.90;57.50
23532;DHT22;11943;52.270;20.978;2023-05-21T08:21:04;23.00;58.00
23532;DHT22;11943;52.270;20.978;2023-05-21T08:23:30;23.00;55.10
23532;DHT22;11943;52.270;20.978;2023-05-21T08:25:56;23.10;55.40
23532;DHT22;11943;52.270;20.978;2023-05-21T08:28:21;23.10;54.50
23532;DHT22;11943;52.270;20.978;2023-05-21T08:30:48;23.30;54.00
23532;DHT22;11943;52.270;20.978;2023-05-21T08:33:13;23.40;53.50
23532;DHT22;11943;52.270;20.978;2023-05-21T08:35:39;23.60;53.20
23532;DHT22;11943;52.270;20.978;2023-05-21T08:38:05;23.60;51.80
23532;DHT22;11943;52.270;20.978;2023-05-21T08:40:30;23.90;54.70
23532;DHT22;11943;52.270;20.978;2023-05-21T08:42:56;23.80;52.10
23532;DHT22;11943;52.270;20.978;2023-05-21T08:45:23;23.50;52.40
23532;DHT22;11943;52.270;20.978;2023-05-21T08:47:54;23.60;53.20
23532;DHT22;11943;52.270;20.978;2023-05-21T08:50:23;23.70;52.10
23532;DHT22;11943;52.270;20.978;2023-05-21T08:52:50;23.60;50.80
23532;DHT22;11943;52.270;20.978;2023-05-21T08:55:16;23.60;47.10
23532;DHT22;11943;52.270;20.978;2023-05-21T08:57:43;23.60;49.00
23532;DHT22;11943;52.270;20.978;2023-05-21T09:00:09;23.20;47.90
23532;DHT22;11943;52.270;20.978;2023-05-21T09:02:37;23.30;48.90
23532;DHT22;11943;52.270;20.978;2023-05-21T09:05:05;23.70;48.00
23532;DHT22;11943;52.270;20.978;2023-05-21T09:07:39;23.70;47.80
23532;DHT22;11943;52.270;20.978;2023-05-21T09:10:07;23.90;46.10
23532;DHT22;11943;52.270;20.978;2023-05-21T09:12:36;23.90;46.00
23532;DHT22;11943;52.270;20.978;2023-05-21T09:15:02;24.00;47.20
23532;DHT22;11943;52.270;20.978;2023-05-21T09:17:28;24.20;47.80
23532;DHT22;11943;52.270;20.978;2023-05-21T09:22:32;24.00;44.40
23532;DHT22;11943;52.270;20.978;2023-05-21T09:24:58;24.00;45.50
23532;DHT22;11943;52.270;20.978;2023-05-21T09:27:23;24.20;46.20
23532;DHT22;11943;52.270;20.978;2023-05-21T09:29:49;24.20;44.00
23532;DHT22;11943;52.270;20.978;2023-05-21T09:32:16;23.90;44.50
23532;DHT22;11943;52.270;20.978;2023-05-21T09:34:42;24.10;45.40
23532;DHT22;11943;52.270;20.978;2023-05-21T09:37:08;23.60;45.40
23532;DHT22;11943;52.270;20.978;2023-05-21T09:39:34;23.40;48.10
23532;DHT22;11943;52.270;20.978;2023-05-21T09:42:00;23.90;48.40
23532;DHT22;11943;52.270;20.978;2023-05-21T09:44:26;24.20;47.60
23532;DHT22;11943;52.270;20.978;2023-05-21T09:46:56;24.30;47.00
23532;DHT22;11943;52.270;20.978;2023-05-21T09:49:24;24.60;46.70
23532;DHT22;11943;52.270;20.978;2023-05-21T09:51:57;24.30;45.20
23532;DHT22;11943;52.270;20.978;2023-05-21T09:54:24;24.40;45.80
23532;DHT22;11943;52.270;20.978;2023-05-21T09:56:50;24.60;45.70
23532;DHT22;11943;52.270;20.978;2023-05-21T09:59:20;24.60;44.80
23532;DHT22;11943;52.270;20.978;2023-05-21T10:01:46;24.40;42.70
23532;DHT22;11943;52.270;20.978;2023-05-21T10:04:14;24.40;45.70
23532;DHT22;11943;52.270;20.978;2023-05-21T10:06:46;24.50;45.30
23532;DHT22;11943;52.270;20.978;2023-05-21T10:09:14;24.90;44.50
23532;DHT22;11943;52.270;20.978;2023-05-21T10:11:43;24.90;44.50
23532;DHT22;11943;52.270;20.978;2023-05-21T10:14:19;25.10;44.10
23532;DHT22;11943;52.270;20.978;2023-05-21T10:16:46;25.10;43.30
23532;DHT22;11943;52.270;20.978;2023-05-21T10:19:13;25.10;43.60
23532;DHT22;11943;52.270;20.978;2023-05-21T10:21:40;24.90;42.50
23532;DHT22;11943;52.270;20.978;2023-05-21T10:24:07;24.90;44.30
23532;DHT22;11943;52.270;20.978;2023-05-21T10:26:33;24.80;44.20
23532;DHT22;11943;52.270;20.978;2023-05-21T10:29:01;24.70;44.50
23532;DHT22;11943;52.270;20.978;2023-05-21T10:31:27;24.70;44.20
23532;DHT22;11943;52.270;20.978;2023-05-21T10:33:53;24.70;43.20
23532;DHT22;11943;52.270;20.978;2023-05-21T10:36:20;24.60;43.10
23532;DHT22;11943;52.270;20.978;2023-05-21T10:38:48;24.60;44.60
23532;DHT22;11943;52.270;20.978;2023-05-21T10:41:18;24.90;45.60
23532;DHT22;11943;52.270;20.978;2023-05-21T10:44:03;25.10;45.60
23532;DHT22;11943;52.270;20.978;2023-05-21T10:52:55;25.00;43.60
23532;DHT22;11943;52.270;20.978;2023-05-21T10:55:12;24.60;43.60
23532;DHT22;11943;52.270;20.978;2023-05-21T10:58:12;24.70;43.90
23532;DHT22;11943;52.270;20.978;2023-05-21T11:00:41;24.90;44.30
23532;DHT22;11943;52.270;20.978;2023-05-21T11:03:10;25.10;43.60
23532;DHT22;11943;52.270;20.978;2023-05-21T11:05:40;24.90;42.50
23532;DHT22;11943;52.270;20.978;2023-05-21T11:08:32;24.80;43.10
23532;DHT22;11943;52.270;20.978;2023-05-21T11:11:01;25.00;43.30
23532;DHT22;11943;52.270;20.978;2023-05-21T11:13:28;25.40;43.90
23532;DHT22;11943;52.270;20.978;2023-05-21T11:21:10;25.10;43.30
23532;DHT22;11943;52.270;20.978;2023-05-21T11:24:00;25.30;44.80
23532;DHT22;11943;52.270;20.978;2023-05-21T11:27:15;25.10;42.80
23532;DHT22;11943;52.270;20.978;2023-05-21T11:29:17;25.20;43.10
23532;DHT22;11943;52.270;20.978;2023-05-21T11:31:48;25.10;43.30
23532;DHT22;11943;52.270;20.978;2023-05-21T11:34:23;25.00;43.50
23532;DHT22;11943;52.270;20.978;2023-05-21T11:39:52;24.90;44.30
23532;DHT22;11943;52.270;20.978;2023-05-21T11:42:36;25.00;44.50
23532;DHT22;11943;52.270;20.978;2023-05-21T11:45:03;25.40;44.40
23532;DHT22;11943;52.270;20.978;2023-05-21T11:47:30;25.40;43.40
23532;DHT22;11943;52.270;20.978;2023-05-21T11:49:58;25.60;41.70
23532;DHT22;11943;52.270;20.978;2023-05-21T11:52:24;25.80;42.30
23532;DHT22;11943;52.270;20.978;2023-05-21T11:54:52;25.90;41.30
23532;DHT22;11943;52.270;20.978;2023-05-21T11:57:25;25.70;43.00
23532;DHT22;11943;52.270;20.978;2023-05-21T11:59:54;25.70;42.70
23532;DHT22;11943;52.270;20.978;2023-05-21T12:02:24;25.70;42.50
23532;DHT22;11943;52.270;20.978;2023-05-21T12:04:50;25.50;40.50
23532;DHT22;11943;52.270;20.978;2023-05-21T12:07:19;25.40;39.80
23532;DHT22;11943;52.270;20.978;2023-05-21T12:09:50;25.30;41.30
23532;DHT22;11943;52.270;20.978;2023-05-21T12:12:18;24.90;40.00
23532;DHT22;11943;52.270;20.978;2023-05-21T12:14:47;25.20;42.20
23532;DHT22;11943;52.270;20.978;2023-05-21T12:17:24;25.40;43.40
23532;DHT22;11943;52.270;20.978;2023-05-21T12:19:51;25.30;42.80
23532;DHT22;11943;52.270;20.978;2023-05-21T12:22:17;25.30;42.10
23532;DHT22;11943;52.270;20.978;2023-05-21T12:24:44;25.30;41.40
23532;DHT22;11943;52.270;20.978;2023-05-21T12:27:10;25.40;41.90
23532;DHT22;11943;52.270;20.978;2023-05-21T12:29:38;25.40;41.80
23532;DHT22;11943;52.270;20.978;2023-05-21T12:32:07;25.80;43.50
23532;DHT22;11943;52.270;20.978;2023-05-21T12:34:52;25.90;43.10
23532;DHT22;11943;52.270;20.978;2023-05-21T12:37:25;26.00;42.20
23532;DHT22;11943;52.270;20.978;2023-05-21T12:39:56;25.60;39.60
23532;DHT22;11943;52.270;20.978;2023-05-21T12:42:30;25.60;40.30
23532;DHT22;11943;52.270;20.978;2023-05-21T12:44:56;25.70;42.50
23532;DHT22;11943;52.270;20.978;2023-05-21T12:47:23;25.60;42.90
23532;DHT22;11943;52.270;20.978;2023-05-21T12:49:53;25.50;41.90
23532;DHT22;11943;52.270;20.978;2023-05-21T12:52:20;25.60;41.10
23532;DHT22;11943;52.270;20.978;2023-05-21T12:54:49;25.70;42.60
23532;DHT22;11943;52.270;20.978;2023-05-21T12:59:50;25.50;41.60
23532;DHT22;11943;52.270;20.978;2023-05-21T13:02:19;25.40;40.10
23532;DHT22;11943;52.270;20.978;2023-05-21T13:04:46;25.40;41.90
23532;DHT22;11943;52.270;20.978;2023-05-21T13:07:13;25.30;41.90
23532;DHT22;11943;52.270;20.978;2023-05-21T13:09:38;25.10;40.80
23532;DHT22;11943;52.270;20.978;2023-05-21T13:12:04;25.30;41.90
23532;DHT22;11943;52.270;20.978;2023-05-21T13:14:30;25.40;42.50
23532;DHT22;11943;52.270;20.978;2023-05-21T13:16:56;25.40;42.20
23532;DHT22;11943;52.270;20.978;2023-05-21T13:19:22;25.30;41.60
23532;DHT22;11943;52.270;20.978;2023-05-21T13:21:47;25.00;41.80
23532;DHT22;11943;52.270;20.978;2023-05-21T13:24:13;25.30;42.20
23532;DHT22;11943;52.270;20.978;2023-05-21T13:26:39;25.30;41.60
23532;DHT22;11943;52.270;20.978;2023-05-21T13:29:04;25.20;41.70
23532;DHT22;11943;52.270;20.978;2023-05-21T13:31:30;25.50;42.10
23532;DHT22;11943;52.270;20.978;2023-05-21T13:33:56;25.20;41.10
23532;DHT22;11943;52.270;20.978;2023-05-21T13:36:21;25.20;41.00
23532;DHT22;11943;52.270;20.978;2023-05-21T13:38:47;24.80;40.20
23532;DHT22;11943;52.270;20.978;2023-05-21T13:41:12;24.90;42.60
23532;DHT22;11943;52.270;20.978;2023-05-21T13:43:41;25.10;42.20
23532;DHT22;11943;52.270;20.978;2023-05-21T13:46:07;25.20;41.00
23532;DHT22;11943;52.270;20.978;2023-05-21T13:48:32;25.20;41.80
23532;DHT22;11943;52.270;20.978;2023-05-21T13:50:58;25.10;40.30
23532;DHT22;11943;52.270;20.978;2023-05-21T13:53:23;25.20;40.90
23532;DHT22;11943;52.270;20.978;2023-05-21T13:55:49;25.30;40.30
23532;DHT22;11943;52.270;20.978;2023-05-21T13:58:15;25.30;39.50
23532;DHT22;11943;52.270;20.978;2023-05-21T14:00:40;25.20;37.40
23532;DHT22;11943;52.270;20.978;2023-05-21T14:03:07;25.30;38.80
23532;DHT22;11943;52.270;20.978;2023-05-21T14:05:34;25.00;37.10
23532;DHT22;11943;52.270;20.978;2023-05-21T14:08:00;24.90;38.20
23532;DHT22;11943;52.270;20.978;2023-05-21T14:10:25;25.00;38.80
23532;DHT22;11943;52.270;20.978;2023-05-21T14:12:51;25.10;38.40
23532;DHT22;11943;52.270;20.978;2023-05-21T14:15:17;25.20;39.00
23532;DHT22;11943;52.270;20.978;2023-05-21T14:17:43;25.20;38.80
23532;DHT22;11943;52.270;20.978;2023-05-21T14:20:09;25.20;39.20
23532;DHT22;11943;52.270;20.978;2023-05-21T14:22:35;25.20;39.40
23532;DHT22;11943;52.270;20.978;2023-05-21T14:25:00;25.10;40.10
23532;DHT22;11943;52.270;20.978;2023-05-21T14:27:27;25.00;41.10
23532;DHT22;11943;52.270;20.978;2023-05-21T14:29:53;25.10;41.10
23532;DHT22;11943;52.270;20.978;2023-05-21T14:32:18;25.10;41.10
23532;DHT22;11943;52.270;20.978;2023-05-21T14:34:44;25.00;40.00
23532;DHT22;11943;52.270;20.978;2023-05-21T14:37:09;24.80;39.80
23532;DHT22;11943;52.270;20.978;2023-05-21T14:39:35;24.70;40.80
23532;DHT22;11943;52.270;20.978;2023-05-21T14:42:04;24.70;40.80
23532;DHT22;11943;52.270;20.978;2023-05-21T14:44:30;24.60;40.40
23532;DHT22;11943;52.270;20.978;2023-05-21T14:46:56;24.70;40.90
23532;DHT22;11943;52.270;20.978;2023-05-21T14:49:22;24.80;42.00
23532;DHT22;11943;52.270;20.978;2023-05-21T14:51:47;24.50;40.20
23532;DHT22;11943;52.270;20.978;2023-05-21T14:54:13;24.50;40.40
23532;DHT22;11943;52.270;20.978;2023-05-21T14:56:39;24.60;40.50
23532;DHT22;11943;52.270;20.978;2023-05-21T14:59:04;24.70;39.90
23532;DHT22;11943;52.270;20.978;2023-05-21T15:01:30;24.80;38.20
23532;DHT22;11943;52.270;20.978;2023-05-21T15:03:56;24.60;38.30
23532;DHT22;11943;52.270;20.978;2023-05-21T15:06:23;24.50;38.20
23532;DHT22;11943;52.270;20.978;2023-05-21T15:08:48;24.50;38.20
23532;DHT22;11943;52.270;20.978;2023-05-21T15:11:14;24.50;39.20
23532;DHT22;11943;52.270;20.978;2023-05-21T15:13:40;24.50;38.30
23532;DHT22;11943;52.270;20.978;2023-05-21T15:16:06;24.50;40.00
23532;DHT22;11943;52.270;20.978;2023-05-21T15:18:31;24.50;38.50
23532;DHT22;11943;52.270;20.978;2023-05-21T15:20:57;24.40;39.20
23532;DHT22;11943;52.270;20.978;2023-05-21T15:23:23;24.40;39.00
23532;DHT22;11943;52.270;20.978;2023-05-21T15:25:49;24.40;38.70
23532;DHT22;11943;52.270;20.978;2023-05-21T15:28:15;24.30;38.60
23532;DHT22;11943;52.270;20.978;2023-05-21T15:30:40;24.10;39.20
23532;DHT22;11943;52.270;20.978;2023-05-21T15:33:06;24.10;39.40